Time;durP1;ratioP1;P1;durP2;ratioP2;P2;SDS_P1;SDS_P2;PMS_P1;PMS_P2;Temp;Humidity;BMP_temperature;BMP_pressure;BME280_temperature;BME280_humidity;BME280_pressure;Samples;Min_cycle;Max_cycle;Signal;HPM_P1;HPM_P2
2023/04/12 00:02:11;;;;;;;7.13;1.98;;;;;;;;;;6220411;23;20039;-94
2023/04/12 00:04:38;;;;;;;15.63;2.33;;;;;;;;;;6220262;23;20059;-93
2023/04/12 00:07:13;;;;;;;16.60;2.80;;;;;;;;;;6220049;23;20020;-94
2023/04/12 00:09:39;;;;;;;9.48;2.30;;;;;;;;;;6219707;23;20035;-94
2023/04/12 00:12:05;;;;;;;17.75;2.10;;;;;;;;;;6220188;23;20004;-93
2023/04/12 00:14:32;;;;;;;9.10;2.28;;;;;;;;;;6221637;22;20067;-94
2023/04/12 00:17:01;;;;;;;9.07;2.97;;;;;;;;;;6222606;23;20012;-93
2023/04/12 00:19:29;;;;;;;6.63;2.53;;;;;;;;;;6247991;23;20013;-94
2023/04/12 00:21:56;;;;;;;11.00;2.30;;;;;;;;;;6223570;23;20573;-94
2023/04/12 00:24:28;;;;;;;15.98;3.72;;;;;;;;;;6223265;23;20036;-94
2023/04/12 00:27:00;;;;;;;11.73;2.45;;;;;;;;;;6252385;23;20016;-94
2023/04/12 00:29:36;;;;;;;10.75;2.33;;;;;;;;;;6228425;23;20011;-94
2023/04/12 00:32:05;;;;;;;16.10;2.60;;;;;;;;;;6259190;23;20262;-94
2023/04/12 00:34:31;;;;;;;10.88;2.58;;;;;;;;;;6263748;22;20013;-94
2023/04/12 00:36:57;;;;;;;12.02;2.25;;;;;;;;;;6261759;23;19988;-93
2023/04/12 00:39:24;;;;;;;4.75;2.40;;;;;;;;;;6237124;23;20001;-94
2023/04/12 00:41:56;;;;;;;9.00;2.42;;;;;;;;;;6237399;23;20071;-94
2023/04/12 00:44:25;;;;;;;7.35;2.10;;;;;;;;;;6231586;23;20015;-93
2023/04/12 00:47:13;;;;;;;7.32;2.42;;;;;;;;;;6227561;23;20013;-94
2023/04/12 00:49:38;;;;;;;9.98;2.28;;;;;;;;;;6224715;23;20011;-94
2023/04/12 00:52:14;;;;;;;13.23;3.03;;;;;;;;;;6248344;23;20064;-95
2023/04/12 00:54:41;;;;;;;13.98;2.83;;;;;;;;;;6222934;23;20008;-94
2023/04/12 00:57:08;;;;;;;9.48;2.30;;;;;;;;;;6248157;23;20315;-94
2023/04/12 00:59:38;;;;;;;8.90;1.75;;;;;;;;;;6220799;23;20012;-94
2023/04/12 01:02:04;;;;;;;11.50;2.10;;;;;;;;;;6246641;23;20017;-95
2023/04/12 01:04:36;;;;;;;13.50;2.90;;;;;;;;;;6221533;23;20013;-95
2023/04/12 01:07:28;;;;;;;15.52;2.67;;;;;;;;;;6246433;23;20064;-94
2023/04/12 01:10:09;;;;;;;13.32;2.40;;;;;;;;;;6247112;23;20012;-95
2023/04/12 01:12:58;;;;;;;17.45;2.78;;;;;;;;;;6245408;23;20355;-95
2023/04/12 01:15:25;;;;;;;9.48;2.53;;;;;;;;;;6220797;22;20012;-95
2023/04/12 01:18:04;;;;;;;15.40;2.33;;;;;;;;;;6246077;23;20009;-95
2023/04/12 01:20:34;;;;;;;10.27;2.58;;;;;;;;;;6243999;23;20028;-95
2023/04/12 01:23:19;;;;;;;12.73;2.25;;;;;;;;;;6244803;23;20008;-95
2023/04/12 01:25:59;;;;;;;5.50;2.15;;;;;;;;;;6245670;23;20012;-94
2023/04/12 01:28:35;;;;;;;6.00;2.33;;;;;;;;;;6245831;23;20024;-95
2023/04/12 01:31:02;;;;;;;12.25;2.60;;;;;;;;;;6245626;23;20009;-95
2023/04/12 01:33:30;;;;;;;14.05;3.28;;;;;;;;;;6246012;23;20085;-94
2023/04/12 01:36:02;;;;;;;10.68;3.03;;;;;;;;;;6220375;23;20005;-95
2023/04/12 01:38:29;;;;;;;11.65;2.50;;;;;;;;;;6247239;23;20466;-94
2023/04/12 01:40:55;;;;;;;18.25;3.42;;;;;;;;;;6247302;23;20063;-95
2023/04/12 01:43:21;;;;;;;11.43;2.25;;;;;;;;;;6220784;23;20032;-95
2023/04/12 01:45:59;;;;;;;13.73;2.92;;;;;;;;;;6220797;23;20067;-94
2023/04/12 01:48:25;;;;;;;12.75;3.25;;;;;;;;;;6246359;23;20005;-94
2023/04/12 01:51:00;;;;;;;11.35;2.58;;;;;;;;;;6245901;23;20494;-95
2023/04/12 01:53:36;;;;;;;10.30;2.33;;;;;;;;;;6246747;23;20072;-94
2023/04/12 01:56:06;;;;;;;16.70;2.90;;;;;;;;;;6245894;23;20109;-93
2023/04/12 01:58:43;;;;;;;3.75;2.22;;;;;;;;;;6245522;23;20005;-94
2023/04/12 02:01:12;;;;;;;7.93;2.28;;;;;;;;;;6246356;23;20348;-94
2023/04/12 02:03:42;;;;;;;11.50;2.50;;;;;;;;;;6244525;23;20004;-94
2023/04/12 02:06:11;;;;;;;11.20;2.67;;;;;;;;;;6245492;23;20064;-95
2023/04/12 02:08:37;;;;;;;8.55;2.53;;;;;;;;;;6245697;23;20285;-94
2023/04/12 02:11:11;;;;;;;10.57;2.90;;;;;;;;;;6245491;23;20005;-94
2023/04/12 02:13:37;;;;;;;10.90;2.53;;;;;;;;;;6218395;22;20013;-95
2023/04/12 02:16:03;;;;;;;12.20;2.88;;;;;;;;;;6165973;23;20008;-95
2023/04/12 02:18:30;;;;;;;12.38;2.40;;;;;;;;;;6142728;23;20101;-95
2023/04/12 02:21:00;;;;;;;3.55;1.45;;;;;;;;;;6143828;23;20067;-94
2023/04/12 02:23:27;;;;;;;6.90;2.08;;;;;;;;;;6145255;23;20048;-94
2023/04/12 02:25:59;;;;;;;10.45;2.60;;;;;;;;;;6171124;23;20005;-95
2023/04/12 02:28:26;;;;;;;7.22;1.52;;;;;;;;;;6146513;23;20005;-95
2023/04/12 02:30:55;;;;;;;14.75;2.30;;;;;;;;;;6145010;23;20005;-95
2023/04/12 02:33:26;;;;;;;10.05;2.00;;;;;;;;;;6145333;23;20059;-94
2023/04/12 02:35:53;;;;;;;7.75;1.90;;;;;;;;;;6144620;23;20083;-95
2023/04/12 02:38:19;;;;;;;18.70;3.38;;;;;;;;;;6143915;23;20021;-95
2023/04/12 02:40:45;;;;;;;10.40;3.30;;;;;;;;;;6145152;23;20036;-94
2023/04/12 02:43:11;;;;;;;3.85;1.92;;;;;;;;;;6144968;23;20555;-95
2023/04/12 02:45:43;;;;;;;15.55;2.53;;;;;;;;;;6144057;23;20004;-94
2023/04/12 02:48:10;;;;;;;12.63;2.92;;;;;;;;;;6168740;23;20001;-94
2023/04/12 02:50:37;;;;;;;7.90;2.53;;;;;;;;;;6194295;23;20012;-94
2023/04/12 02:53:03;;;;;;;11.25;2.50;;;;;;;;;;6170198;23;20009;-95
2023/04/12 02:55:30;;;;;;;7.38;2.42;;;;;;;;;;6168684;23;20016;-95
2023/04/12 02:58:02;;;;;;;13.90;2.72;;;;;;;;;;6168013;23;20012;-95
2023/04/12 03:00:28;;;;;;;6.55;1.33;;;;;;;;;;6168560;23;20017;-96
2023/04/12 03:02:54;;;;;;;8.93;2.30;;;;;;;;;;6144205;23;20463;-94
2023/04/12 03:05:21;;;;;;;5.97;1.88;;;;;;;;;;6169317;23;20172;-95
2023/04/12 03:07:47;;;;;;;11.50;2.25;;;;;;;;;;6172479;23;20394;-95
2023/04/12 03:10:17;;;;;;;9.63;2.10;;;;;;;;;;6172841;23;20004;-95
2023/04/12 03:12:43;;;;;;;16.52;3.00;;;;;;;;;;6147060;23;20435;-94
2023/04/12 03:15:09;;;;;;;10.45;2.40;;;;;;;;;;6184701;23;20032;-95
2023/04/12 03:17:36;;;;;;;8.65;2.40;;;;;;;;;;6201617;23;20535;-93
2023/04/12 03:20:09;;;;;;;5.28;2.05;;;;;;;;;;6226790;23;20036;-94
2023/04/12 03:22:38;;;;;;;8.48;2.00;;;;;;;;;;6225649;23;20012;-95
2023/04/12 03:25:05;;;;;;;12.75;2.20;;;;;;;;;;6222534;23;20418;-95
2023/04/12 03:27:31;;;;;;;7.57;2.38;;;;;;;;;;6247302;23;20012;-95
2023/04/12 03:29:57;;;;;;;11.07;2.08;;;;;;;;;;6222009;23;20008;-95
2023/04/12 03:32:24;;;;;;;11.57;2.30;;;;;;;;;;6248022;23;20005;-95
2023/04/12 03:34:50;;;;;;;8.65;1.52;;;;;;;;;;6222846;23;20036;-95
2023/04/12 03:37:16;;;;;;;3.65;1.40;;;;;;;;;;6247551;23;20080;-95
2023/04/12 03:39:46;;;;;;;7.25;1.45;;;;;;;;;;6222235;23;20015;-95
2023/04/12 03:42:15;;;;;;;7.63;1.48;;;;;;;;;;6222700;23;20311;-96
2023/04/12 03:44:41;;;;;;;14.20;1.50;;;;;;;;;;6222233;23;20013;-95
2023/04/12 03:47:07;;;;;;;5.18;1.95;;;;;;;;;;6246062;23;20324;-94
2023/04/12 03:49:40;;;;;;;4.35;1.55;;;;;;;;;;6221596;23;20008;-96
2023/04/12 03:52:07;;;;;;;2.83;1.67;;;;;;;;;;6222506;23;20040;-95
2023/04/12 03:54:33;;;;;;;3.97;1.15;;;;;;;;;;6223192;23;20096;-96
2023/04/12 03:57:20;;;;;;;8.30;1.58;;;;;;;;;;6248043;23;20016;-96
2023/04/12 03:59:46;;;;;;;9.48;1.63;;;;;;;;;;6222626;23;20009;-95
2023/04/12 04:02:12;;;;;;;3.00;1.13;;;;;;;;;;6222632;23;20358;-96
2023/04/12 04:04:38;;;;;;;2.20;0.93;;;;;;;;;;6223636;23;20055;-96
2023/04/12 04:07:04;;;;;;;5.53;1.70;;;;;;;;;;6224599;23;20344;-95
2023/04/12 04:09:30;;;;;;;9.40;1.90;;;;;;;;;;6224810;23;20007;-96
2023/04/12 04:11:56;;;;;;;8.05;1.80;;;;;;;;;;6224466;23;20019;-96
2023/04/12 04:14:22;;;;;;;7.57;2.00;;;;;;;;;;6225818;22;20012;-96
2023/04/12 04:16:49;;;;;;;4.68;1.63;;;;;;;;;;6226140;23;20447;-96
2023/04/12 04:19:15;;;;;;;6.68;1.70;;;;;;;;;;6226603;23;20071;-96
2023/04/12 04:21:42;;;;;;;8.82;1.75;;;;;;;;;;6227190;23;20023;-95
2023/04/12 04:24:10;;;;;;;10.27;2.15;;;;;;;;;;6229397;23;20411;-96
2023/04/12 04:26:39;;;;;;;12.88;2.08;;;;;;;;;;6255267;23;20040;-96
2023/04/12 04:29:07;;;;;;;4.18;1.50;;;;;;;;;;6240674;23;20005;-95
2023/04/12 04:31:35;;;;;;;6.60;1.75;;;;;;;;;;6265112;23;20025;-95
2023/04/12 04:34:05;;;;;;;7.78;1.90;;;;;;;;;;6238449;23;20147;-95
2023/04/12 04:36:51;;;;;;;3.30;1.73;;;;;;;;;;6242164;22;20039;-95
2023/04/12 04:39:18;;;;;;;8.75;1.88;;;;;;;;;;6239347;23;20012;-95
2023/04/12 04:41:45;;;;;;;4.93;0.98;;;;;;;;;;6231689;23;20036;-94
2023/04/12 04:44:12;;;;;;;6.35;2.40;;;;;;;;;;6229301;23;20005;-95
2023/04/12 04:46:38;;;;;;;9.95;2.22;;;;;;;;;;6224366;23;20016;-95
2023/04/12 04:49:05;;;;;;;5.07;1.98;;;;;;;;;;6223217;23;20012;-94
2023/04/12 04:51:35;;;;;;;13.02;2.25;;;;;;;;;;6197355;23;20004;-94
2023/04/12 04:54:02;;;;;;;10.65;2.22;;;;;;;;;;6222764;23;20009;-94
2023/04/12 04:56:31;;;;;;;11.32;2.53;;;;;;;;;;6247711;23;20008;-92
2023/04/12 04:58:57;;;;;;;13.88;2.95;;;;;;;;;;6222860;23;20008;-94
2023/04/12 05:01:30;;;;;;;9.48;2.88;;;;;;;;;;6197099;23;20024;-94
2023/04/12 05:04:00;;;;;;;6.32;2.45;;;;;;;;;;6246509;23;20222;-93
2023/04/12 05:06:26;;;;;;;22.85;3.67;;;;;;;;;;6247344;23;20016;-93
2023/04/12 05:08:53;;;;;;;14.02;3.35;;;;;;;;;;6222145;23;20389;-93
2023/04/12 05:11:20;;;;;;;13.48;2.63;;;;;;;;;;6221545;23;20427;-93
2023/04/12 05:13:46;;;;;;;10.43;3.58;;;;;;;;;;6221861;22;20005;-93
2023/04/12 05:16:14;;;;;;;21.35;4.28;;;;;;;;;;6141162;23;20024;-93
2023/04/12 05:18:52;;;;;;;8.32;3.03;;;;;;;;;;6141747;23;20017;-93
2023/04/12 05:21:21;;;;;;;7.25;3.10;;;;;;;;;;6143528;23;20072;-93
2023/04/12 05:23:50;;;;;;;9.63;3.10;;;;;;;;;;6165949;23;20012;-93
2023/04/12 05:26:16;;;;;;;9.32;3.03;;;;;;;;;;6141987;23;20021;-93
2023/04/12 05:28:44;;;;;;;11.25;3.55;;;;;;;;;;6140415;23;20037;-92
2023/04/12 05:31:13;;;;;;;7.40;2.92;;;;;;;;;;6141713;23;20430;-92
2023/04/12 05:33:42;;;;;;;10.25;2.85;;;;;;;;;;6165547;23;20009;-92
2023/04/12 05:36:08;;;;;;;9.32;2.67;;;;;;;;;;6141720;23;20055;-92
2023/04/12 05:38:37;;;;;;;9.50;2.75;;;;;;;;;;6165826;23;20012;-92
2023/04/12 05:41:20;;;;;;;7.45;3.17;;;;;;;;;;6166731;23;20047;-93
2023/04/12 05:43:49;;;;;;;14.20;3.65;;;;;;;;;;6141244;23;20016;-92
2023/04/12 05:46:19;;;;;;;13.02;3.20;;;;;;;;;;6165775;23;20414;-92
2023/04/12 05:48:45;;;;;;;9.13;3.40;;;;;;;;;;6141761;23;20013;-91
2023/04/12 05:51:11;;;;;;;9.98;2.80;;;;;;;;;;6140947;23;20043;-92
2023/04/12 05:53:38;;;;;;;18.60;4.38;;;;;;;;;;6141006;23;20005;-92
2023/04/12 05:56:05;;;;;;;8.60;2.63;;;;;;;;;;6141371;23;20009;-92
2023/04/12 05:58:33;;;;;;;16.65;3.35;;;;;;;;;;6142328;23;20104;-93
2023/04/12 06:01:03;;;;;;;11.05;3.15;;;;;;;;;;6167325;23;20004;-91
2023/04/12 06:03:29;;;;;;;10.13;2.58;;;;;;;;;;6142985;23;20436;-93
2023/04/12 06:05:58;;;;;;;10.18;2.20;;;;;;;;;;6143055;23;20355;-92
2023/04/12 06:08:28;;;;;;;14.88;2.50;;;;;;;;;;6142539;23;20009;-93
2023/04/12 06:10:54;;;;;;;10.07;2.72;;;;;;;;;;6144776;23;20005;-94
2023/04/12 06:13:21;;;;;;;8.48;2.47;;;;;;;;;;6168598;23;20027;-92
2023/04/12 06:15:53;;;;;;;12.25;2.88;;;;;;;;;;6216393;22;20406;-92
2023/04/12 06:18:19;;;;;;;9.77;2.05;;;;;;;;;;6223865;23;20482;-94
2023/04/12 06:20:45;;;;;;;9.43;2.28;;;;;;;;;;6223124;23;20036;-92
2023/04/12 06:23:12;;;;;;;7.43;2.08;;;;;;;;;;6247599;23;20008;-91
2023/04/12 06:25:38;;;;;;;19.25;3.20;;;;;;;;;;6223493;23;20000;-92
2023/04/12 06:28:05;;;;;;;3.30;1.95;;;;;;;;;;6221286;23;20023;-92
2023/04/12 06:30:31;;;;;;;8.43;1.88;;;;;;;;;;6221818;23;20485;-92
2023/04/12 06:32:57;;;;;;;5.65;1.98;;;;;;;;;;6220074;23;20059;-92
2023/04/12 06:35:24;;;;;;;8.40;2.70;;;;;;;;;;6221415;23;20012;-93
2023/04/12 06:37:50;;;;;;;13.48;2.50;;;;;;;;;;6221399;23;20009;-94
2023/04/12 06:40:32;;;;;;;16.00;2.35;;;;;;;;;;6221480;23;20032;-92
2023/04/12 06:42:58;;;;;;;9.68;2.88;;;;;;;;;;6220258;23;20125;-92
2023/04/12 06:45:24;;;;;;;5.88;2.25;;;;;;;;;;6216974;23;20008;-92
2023/04/12 06:47:50;;;;;;;6.65;2.10;;;;;;;;;;6216841;23;20343;-92
2023/04/12 06:50:17;;;;;;;5.68;2.15;;;;;;;;;;6218135;23;20502;-92
2023/04/12 06:52:43;;;;;;;14.48;2.22;;;;;;;;;;6242437;23;20001;-92
2023/04/12 06:55:09;;;;;;;9.27;2.58;;;;;;;;;;6216767;23;20001;-92
2023/04/12 06:57:39;;;;;;;7.35;2.58;;;;;;;;;;6218176;23;20011;-92
2023/04/12 07:00:06;;;;;;;7.10;2.10;;;;;;;;;;6218046;23;20416;-92
2023/04/12 07:02:32;;;;;;;8.20;2.38;;;;;;;;;;6243018;23;20012;-91
2023/04/12 07:04:58;;;;;;;8.00;2.45;;;;;;;;;;6220074;23;20005;-92
2023/04/12 07:07:26;;;;;;;7.35;3.58;;;;;;;;;;6244223;23;20008;-93
2023/04/12 07:09:53;;;;;;;10.18;2.28;;;;;;;;;;6221172;23;20009;-93
2023/04/12 07:12:20;;;;;;;7.60;3.03;;;;;;;;;;6246189;23;20000;-92
2023/04/12 07:14:52;;;;;;;5.97;1.50;;;;;;;;;;6246530;22;20048;-91
2023/04/12 07:17:21;;;;;;;10.82;3.13;;;;;;;;;;6246364;23;20407;-91
2023/04/12 07:19:51;;;;;;;8.77;1.67;;;;;;;;;;6246142;23;20009;-91
2023/04/12 07:22:17;;;;;;;7.28;1.77;;;;;;;;;;6246406;23;20012;-92
2023/04/12 07:24:45;;;;;;;7.72;2.67;;;;;;;;;;6221539;23;20067;-91
2023/04/12 07:27:11;;;;;;;15.93;2.65;;;;;;;;;;6221473;23;20012;-91
2023/04/12 07:29:39;;;;;;;6.80;2.42;;;;;;;;;;6246291;23;19997;-92
2023/04/12 07:32:08;;;;;;;7.45;2.33;;;;;;;;;;6220793;23;20020;-91
2023/04/12 07:34:35;;;;;;;3.10;1.52;;;;;;;;;;6245884;23;20058;-91
2023/04/12 07:37:01;;;;;;;7.15;2.40;;;;;;;;;;6220695;23;20009;-91
2023/04/12 07:39:28;;;;;;;5.78;1.88;;;;;;;;;;6219923;23;20446;-91
2023/04/12 07:41:55;;;;;;;5.30;2.20;;;;;;;;;;6222036;23;20035;-91
2023/04/12 07:44:22;;;;;;;7.43;2.25;;;;;;;;;;6221719;23;20027;-92
2023/04/12 07:46:48;;;;;;;4.85;2.08;;;;;;;;;;6220440;23;20059;-92
2023/04/12 07:49:14;;;;;;;9.45;2.17;;;;;;;;;;6220304;23;20012;-91
2023/04/12 07:51:41;;;;;;;3.80;1.23;;;;;;;;;;6219821;23;20028;-92
2023/04/12 07:54:08;;;;;;;8.27;2.28;;;;;;;;;;6245293;23;20001;-93
2023/04/12 07:56:35;;;;;;;5.40;2.50;;;;;;;;;;6245782;23;20013;-91
2023/04/12 07:59:01;;;;;;;6.10;1.50;;;;;;;;;;6245971;23;20039;-92
2023/04/12 08:01:29;;;;;;;2.58;1.83;;;;;;;;;;6220527;23;20012;-91
2023/04/12 08:03:57;;;;;;;5.57;2.50;;;;;;;;;;6220484;23;20292;-91
2023/04/12 08:06:23;;;;;;;4.93;2.20;;;;;;;;;;6221595;23;20013;-91
2023/04/12 08:08:52;;;;;;;5.05;2.17;;;;;;;;;;6247405;23;20059;-91
2023/04/12 08:11:19;;;;;;;8.32;2.33;;;;;;;;;;6224018;23;20011;-90
2023/04/12 08:13:45;;;;;;;6.28;2.15;;;;;;;;;;6222613;23;20012;-91
2023/04/12 08:16:12;;;;;;;5.03;2.13;;;;;;;;;;6225225;22;20021;-91
2023/04/12 08:18:43;;;;;;;3.05;2.25;;;;;;;;;;6228090;23;20028;-92
2023/04/12 08:21:09;;;;;;;6.38;2.50;;;;;;;;;;6232554;23;20013;-91
2023/04/12 08:23:36;;;;;;;8.80;2.25;;;;;;;;;;6261814;23;20009;-90
2023/04/12 08:26:03;;;;;;;4.10;2.30;;;;;;;;;;6235078;23;20024;-91
2023/04/12 08:28:30;;;;;;;2.45;1.73;;;;;;;;;;6233432;23;19989;-92
2023/04/12 08:30:56;;;;;;;13.02;2.50;;;;;;;;;;6260972;23;20100;-90
2023/04/12 08:33:22;;;;;;;6.50;2.42;;;;;;;;;;6228519;23;20047;-91
2023/04/12 08:35:51;;;;;;;10.00;2.70;;;;;;;;;;6249244;23;20008;-92
2023/04/12 08:38:37;;;;;;;6.32;2.30;;;;;;;;;;6247328;23;20004;-92
2023/04/12 08:41:10;;;;;;;2.38;1.80;;;;;;;;;;6218707;23;20005;-92
2023/04/12 08:43:37;;;;;;;5.90;1.70;;;;;;;;;;6221569;23;20004;-92
2023/04/12 08:46:06;;;;;;;3.35;2.50;;;;;;;;;;6245096;23;20059;-92
2023/04/12 08:48:33;;;;;;;7.13;2.53;;;;;;;;;;6220450;23;20324;-92
2023/04/12 08:51:08;;;;;;;8.48;2.70;;;;;;;;;;6220942;23;20005;-92
2023/04/12 08:53:34;;;;;;;6.47;2.67;;;;;;;;;;6245437;23;20012;-92
2023/04/12 08:56:01;;;;;;;4.13;2.75;;;;;;;;;;6246135;23;20015;-92
2023/04/12 08:58:27;;;;;;;6.07;2.60;;;;;;;;;;6221990;23;20076;-92
2023/04/12 09:00:54;;;;;;;4.47;2.50;;;;;;;;;;6218883;23;20016;-92
2023/04/12 09:03:23;;;;;;;6.60;2.63;;;;;;;;;;6244634;23;20005;-92
2023/04/12 09:05:49;;;;;;;8.40;3.25;;;;;;;;;;6244605;23;20427;-92
2023/04/12 09:08:16;;;;;;;10.20;3.38;;;;;;;;;;6219425;23;20083;-92
2023/04/12 09:10:42;;;;;;;14.73;4.22;;;;;;;;;;6219618;23;20009;-92
2023/04/12 09:13:08;;;;;;;10.15;4.35;;;;;;;;;;6217334;23;20096;-91
2023/04/12 09:15:53;;;;;;;3.83;2.58;;;;;;;;;;6228684;22;20503;-91
2023/04/12 09:18:19;;;;;;;10.95;4.97;;;;;;;;;;6252814;22;20016;-92
2023/04/12 09:20:49;;;;;;;7.82;3.97;;;;;;;;;;6245418;23;20013;-92
2023/04/12 09:23:19;;;;;;;6.35;4.03;;;;;;;;;;6244252;23;20023;-92
2023/04/12 09:28:44;;;;;;;10.52;2.75;;;;;;;;;;6215551;23;20088;-92
2023/04/12 09:31:16;;;;;;;6.07;2.92;;;;;;;;;;6244128;23;20055;-92
2023/04/12 09:33:42;;;;;;;5.53;2.60;;;;;;;;;;6245040;23;20011;-92
2023/04/12 09:36:12;;;;;;;4.07;2.97;;;;;;;;;;6244285;23;20008;-92
2023/04/12 09:38:40;;;;;;;6.20;2.90;;;;;;;;;;6245256;23;20008;-92
2023/04/12 09:41:21;;;;;;;4.07;1.77;;;;;;;;;;6244589;23;20008;-92
2023/04/12 09:43:47;;;;;;;5.70;2.67;;;;;;;;;;6244596;23;20015;-92
2023/04/12 09:46:15;;;;;;;7.28;3.00;;;;;;;;;;6220246;23;20012;-92
2023/04/12 09:48:52;;;;;;;9.07;4.15;;;;;;;;;;6221224;23;20000;-93
2023/04/12 09:51:31;;;;;;;2.63;1.85;;;;;;;;;;6246581;23;20005;-92
2023/04/12 09:53:59;;;;;;;7.78;4.05;;;;;;;;;;6245701;23;20008;-93
2023/04/12 09:56:28;;;;;;;9.48;4.53;;;;;;;;;;6245666;23;20012;-93
2023/04/12 09:58:54;;;;;;;7.88;4.05;;;;;;;;;;6244498;23;20012;-92
2023/04/12 10:01:22;;;;;;;9.40;4.88;;;;;;;;;;6220507;23;20088;-93
2023/04/12 10:03:49;;;;;;;5.07;4.47;;;;;;;;;;6246571;23;20008;-93
2023/04/12 10:06:28;;;;;;;7.75;5.25;;;;;;;;;;6245793;23;20095;-93
2023/04/12 10:08:56;;;;;;;6.95;4.32;;;;;;;;;;6220298;23;20028;-92
2023/04/12 10:11:22;;;;;;;5.55;4.03;;;;;;;;;;6219242;23;20020;-92
2023/04/12 10:13:49;;;;;;;9.00;4.55;;;;;;;;;;6244296;23;20015;-92
2023/04/12 10:16:15;;;;;;;12.15;4.78;;;;;;;;;;6244139;22;20031;-92
2023/04/12 10:18:42;;;;;;;8.20;5.15;;;;;;;;;;6219233;23;20009;-92
2023/04/12 10:21:08;;;;;;;5.82;3.85;;;;;;;;;;6243879;23;20028;-90
2023/04/12 10:23:55;;;;;;;5.30;3.55;;;;;;;;;;6240149;23;20024;-91
2023/04/12 10:29:24;;;;;;;7.30;4.07;;;;;;;;;;6215027;23;20094;-91
2023/04/12 10:31:51;;;;;;;10.82;5.05;;;;;;;;;;6241702;23;20465;-91
2023/04/12 10:34:39;;;;;;;8.25;4.63;;;;;;;;;;6246589;23;20024;-91
2023/04/12 10:37:14;;;;;;;10.55;5.07;;;;;;;;;;6219531;23;20012;-92
2023/04/12 10:42:41;;;;;;;10.55;3.05;;;;;;;;;;6228844;23;20020;-92
2023/04/12 10:45:23;;;;;;;7.32;2.63;;;;;;;;;;6219146;23;20404;-92
2023/04/12 10:54:15;;;;;;;7.13;2.90;;;;;;;;;;6103967;23;20087;-92
2023/04/12 10:56:43;;;;;;;9.80;3.13;;;;;;;;;;6105814;23;20013;-91
2023/04/12 10:59:13;;;;;;;5.65;2.97;;;;;;;;;;6107571;23;20499;-92
2023/04/12 11:01:39;;;;;;;5.82;3.03;;;;;;;;;;6107005;23;20009;-91
2023/04/12 11:07:08;;;;;;;7.75;2.95;;;;;;;;;;6144957;23;20017;-92
2023/04/12 11:13:00;;;;;;;6.80;2.92;;;;;;;;;;6238288;23;20124;-91
2023/04/12 11:15:48;;;;;;;6.32;2.50;;;;;;;;;;6194999;22;20020;-90
2023/04/12 11:21:27;;;;;;;2.55;1.33;;;;;;;;;;6106825;23;20007;-91
2023/04/12 11:23:55;;;;;;;4.85;2.20;;;;;;;;;;6182313;23;20035;-92
2023/04/12 11:26:30;;;;;;;6.75;2.20;;;;;;;;;;6225803;23;20031;-89
2023/04/12 11:28:57;;;;;;;7.90;2.63;;;;;;;;;;6248905;23;20529;-91
2023/04/12 11:31:43;;;;;;;10.52;2.30;;;;;;;;;;6250664;23;20016;-90
2023/04/12 11:34:09;;;;;;;9.00;2.33;;;;;;;;;;6255030;23;20005;-92
2023/04/12 11:36:41;;;;;;;9.15;1.85;;;;;;;;;;6226155;23;20009;-92
2023/04/12 11:39:27;;;;;;;9.48;2.47;;;;;;;;;;6248785;23;20328;-92
2023/04/12 11:41:54;;;;;;;11.40;2.13;;;;;;;;;;6249058;23;20015;-92
2023/04/12 11:44:36;;;;;;;13.02;2.28;;;;;;;;;;6249172;23;20008;-93
2023/04/12 11:47:04;;;;;;;7.32;1.95;;;;;;;;;;6225110;23;20020;-93
2023/04/12 11:49:30;;;;;;;5.38;2.30;;;;;;;;;;6251776;23;20005;-91
2023/04/12 11:52:16;;;;;;;13.85;2.30;;;;;;;;;;6229720;23;20008;-92
2023/04/12 11:54:46;;;;;;;12.63;2.40;;;;;;;;;;6249116;23;20032;-92
2023/04/12 11:57:13;;;;;;;7.15;1.95;;;;;;;;;;6225971;23;20693;-91
2023/04/12 11:59:43;;;;;;;12.52;2.85;;;;;;;;;;6224056;23;20012;-91
2023/04/12 12:02:11;;;;;;;9.68;2.45;;;;;;;;;;6251495;23;20008;-92
2023/04/12 12:04:57;;;;;;;10.48;2.75;;;;;;;;;;6227558;23;20497;-92
2023/04/12 12:07:24;;;;;;;6.07;1.25;;;;;;;;;;6222000;23;20479;-91
2023/04/12 12:09:51;;;;;;;11.10;1.60;;;;;;;;;;6252120;23;20027;-92
2023/04/12 12:12:24;;;;;;;10.77;1.75;;;;;;;;;;6224992;23;20405;-92
2023/04/12 12:14:53;;;;;;;19.75;2.45;;;;;;;;;;6248312;22;20016;-93
2023/04/12 12:17:19;;;;;;;19.63;2.47;;;;;;;;;;6146876;23;20009;-92
2023/04/12 12:19:47;;;;;;;11.73;1.98;;;;;;;;;;6169711;23;20013;-91
2023/04/12 12:22:13;;;;;;;12.60;2.63;;;;;;;;;;6143901;23;20463;-92
2023/04/12 12:24:51;;;;;;;13.50;2.63;;;;;;;;;;6166597;23;20028;-91
2023/04/12 12:27:32;;;;;;;15.70;2.85;;;;;;;;;;6166355;23;20019;-94
2023/04/12 12:30:00;;;;;;;9.55;1.75;;;;;;;;;;6168407;23;20032;-92
2023/04/12 12:32:39;;;;;;;13.40;2.33;;;;;;;;;;6166487;23;20015;-92
2023/04/12 12:35:18;;;;;;;17.08;2.42;;;;;;;;;;6168695;23;20020;-93
2023/04/12 12:37:49;;;;;;;12.70;2.30;;;;;;;;;;6167505;23;20013;-93
2023/04/12 12:40:16;;;;;;;12.98;2.35;;;;;;;;;;6166410;23;20013;-92
2023/04/12 12:42:56;;;;;;;10.52;2.67;;;;;;;;;;6140794;23;20031;-92
2023/04/12 12:45:24;;;;;;;10.68;1.83;;;;;;;;;;6165241;23;20033;-92
2023/04/12 12:47:51;;;;;;;9.77;2.30;;;;;;;;;;6140446;23;20013;-92
2023/04/12 12:50:20;;;;;;;4.72;2.00;;;;;;;;;;6167957;23;20343;-92
2023/04/12 12:52:46;;;;;;;9.35;1.70;;;;;;;;;;6166115;23;20009;-92
2023/04/12 12:55:14;;;;;;;24.65;2.28;;;;;;;;;;6166967;23;20008;-93
2023/04/12 12:57:41;;;;;;;15.43;2.25;;;;;;;;;;6166693;23;20435;-92
2023/04/12 13:00:11;;;;;;;14.30;3.10;;;;;;;;;;6168388;23;20088;-92
2023/04/12 13:02:39;;;;;;;19.90;3.38;;;;;;;;;;6167984;23;20010;-92
2023/04/12 13:05:13;;;;;;;12.55;2.33;;;;;;;;;;6166905;23;20041;-93
2023/04/12 13:07:40;;;;;;;23.05;3.17;;;;;;;;;;6145088;23;20017;-93
2023/04/12 13:10:06;;;;;;;14.10;2.88;;;;;;;;;;6143607;23;20015;-92
2023/04/12 13:12:33;;;;;;;19.25;3.40;;;;;;;;;;6167604;23;20005;-93
2023/04/12 13:15:15;;;;;;;11.90;4.07;;;;;;;;;;6178532;22;20043;-93
2023/04/12 13:17:41;;;;;;;14.40;3.05;;;;;;;;;;6167601;23;20095;-92
2023/04/12 13:20:08;;;;;;;19.63;3.47;;;;;;;;;;6168336;23;20033;-93
2023/04/12 13:22:40;;;;;;;13.10;1.92;;;;;;;;;;6193586;23;20465;-93
2023/04/12 13:25:06;;;;;;;11.68;1.63;;;;;;;;;;6194121;23;20039;-92
2023/04/12 13:27:33;;;;;;;14.43;2.47;;;;;;;;;;6193760;23;20062;-92
2023/04/12 13:29:59;;;;;;;15.90;2.20;;;;;;;;;;6192645;23;20009;-92
2023/04/12 13:32:26;;;;;;;10.52;2.45;;;;;;;;;;6168453;23;20454;-91
2023/04/12 13:34:52;;;;;;;16.05;2.10;;;;;;;;;;6168858;23;20001;-92
2023/04/12 13:37:36;;;;;;;16.83;2.10;;;;;;;;;;6169008;23;20000;-92
2023/04/12 13:40:03;;;;;;;6.60;1.73;;;;;;;;;;6195531;23;20021;-92
2023/04/12 13:42:32;;;;;;;15.68;2.13;;;;;;;;;;6195843;23;20323;-94
2023/04/12 13:45:03;;;;;;;10.23;2.00;;;;;;;;;;6195728;23;20013;-91
2023/04/12 13:47:32;;;;;;;12.10;3.30;;;;;;;;;;6196402;23;20017;-92
2023/04/12 13:50:00;;;;;;;11.63;2.60;;;;;;;;;;6195724;23;20224;-93
2023/04/12 13:52:26;;;;;;;13.18;2.90;;;;;;;;;;6169620;23;20088;-91
2023/04/12 13:54:52;;;;;;;14.55;2.38;;;;;;;;;;6194230;23;20029;-92
2023/04/12 14:00:05;;;;;;;9.95;2.47;;;;;;;;;;6199540;23;20027;-92
2023/04/12 14:02:40;;;;;;;8.43;1.80;;;;;;;;;;6201619;23;19997;-91
2023/04/12 14:05:07;;;;;;;5.18;1.77;;;;;;;;;;6179237;23;20024;-93
2023/04/12 14:07:33;;;;;;;4.68;1.23;;;;;;;;;;6203302;23;20013;-93
2023/04/12 14:09:59;;;;;;;8.50;1.95;;;;;;;;;;6203490;23;20028;-93
2023/04/12 14:12:26;;;;;;;8.77;2.03;;;;;;;;;;6204668;23;20037;-92
2023/04/12 14:14:58;;;;;;;8.52;1.80;;;;;;;;;;6204047;23;20005;-93
2023/04/12 14:17:24;;;;;;;10.98;1.38;;;;;;;;;;6234073;22;20017;-94
2023/04/12 14:19:50;;;;;;;3.90;1.13;;;;;;;;;;6232494;23;20016;-93
2023/04/12 14:22:16;;;;;;;4.85;1.00;;;;;;;;;;6226207;23;20013;-93
2023/04/12 14:24:55;;;;;;;10.50;1.38;;;;;;;;;;6224082;23;20027;-94
2023/04/12 14:27:21;;;;;;;15.07;1.58;;;;;;;;;;6247356;23;20024;-94
2023/04/12 14:29:48;;;;;;;7.32;1.48;;;;;;;;;;6223025;23;20008;-94
2023/04/12 14:32:18;;;;;;;10.25;1.48;;;;;;;;;;6222136;23;20098;-93
2023/04/12 14:34:45;;;;;;;3.70;1.52;;;;;;;;;;6221793;23;20391;-94
2023/04/12 14:37:12;;;;;;;12.65;1.25;;;;;;;;;;6220856;23;20016;-93
2023/04/12 14:39:38;;;;;;;1.85;1.02;;;;;;;;;;6246008;23;20096;-94
2023/04/12 14:42:11;;;;;;;12.85;2.20;;;;;;;;;;6220094;23;20016;-93
2023/04/12 14:44:37;;;;;;;8.57;1.67;;;;;;;;;;6220773;23;20020;-93
2023/04/12 14:47:03;;;;;;;12.18;2.03;;;;;;;;;;6220424;23;20041;-94
2023/04/12 14:49:30;;;;;;;10.82;1.67;;;;;;;;;;6245136;23;20031;-94
2023/04/12 14:51:56;;;;;;;11.45;1.65;;;;;;;;;;6221820;23;20012;-93
2023/04/12 14:54:25;;;;;;;14.38;2.67;;;;;;;;;;6219700;23;20005;-94
2023/04/12 14:56:51;;;;;;;8.00;1.67;;;;;;;;;;6244995;23;20373;-94
2023/04/12 14:59:18;;;;;;;8.30;1.92;;;;;;;;;;6219872;23;20075;-94
2023/04/12 15:01:58;;;;;;;13.30;1.83;;;;;;;;;;6220792;23;20008;-94
2023/04/12 15:04:24;;;;;;;9.43;2.22;;;;;;;;;;6245899;23;20005;-92
2023/04/12 15:06:52;;;;;;;12.52;1.73;;;;;;;;;;6221361;23;20466;-93
2023/04/12 15:09:19;;;;;;;12.93;2.95;;;;;;;;;;6220390;23;20009;-94
2023/04/12 15:11:49;;;;;;;16.13;3.22;;;;;;;;;;6220647;23;20039;-94
2023/04/12 15:14:19;;;;;;;11.25;2.30;;;;;;;;;;6246081;23;20343;-94
2023/04/12 15:16:47;;;;;;;15.82;3.10;;;;;;;;;;6247132;22;20450;-94
2023/04/12 15:19:14;;;;;;;9.10;1.63;;;;;;;;;;6245502;23;20009;-94